Capewater — PBPQ — position and weather

sailwx.info

Track history (hours):
 
Tides and Currents Weather Stations Pressure Air Temp Water Temp Dewpoint Dewpoint Depression Visibility Wind Speed Wind Dir Waves Ship Positions

Capewater

Last reported at 2016-May-24 21:34 UTC. Time now 2016-May-24 21:34 UTC.
Position N 54°12' E 000°20'.

Length 100 m; draft 5.3 m.

Type: Tanker. MMSI: 246346000.

Date/timePositionNaut miles runAvg speedWind from/ knotsBaromVisibWave heightAir tempDewpointWater temp
2016-May-24 21:34N 54°12' E 000°20'1010.1
2016-May-24 20:34N 54°20' E 000°10'1110.6
2016-May-24 19:34N 54°28' W 000°02'1111.0
2016-May-24 18:34N 54°37' W 000°13'1111.0
2016-May-24 17:33N 54°46' W 000°25'9 9.5
2016-May-24 16:33N 54°47' W 000°41'9 8.7
2016-May-24 15:33N 54°46' W 000°56'9 9.1
2016-May-24 14:33N 54°40' W 001°08'3 0.1
2016-May-23 09:31N 54°42' W 001°05'3 2.6
2016-May-23 08:33N 54°43' W 001°01'0 0.0
2016-May-23 07:33N 54°43' W 001°01'0 0.0
2016-May-23 06:33N 54°43' W 001°01'0 0.0
2016-May-23 05:30N 54°43' W 001°01'0 0.0
2016-May-23 04:33N 54°43' W 001°00'0 0.0
2016-May-23 03:33N 54°43' W 001°00'0 0.0
2016-May-23 02:33N 54°43' W 001°00'0 0.0
2016-May-23 01:33N 54°43' W 001°00'0 0.0
2016-May-23 00:30N 54°43' W 001°01'0 0.1
2016-May-22 23:33N 54°43' W 001°01'0 0.0
2016-May-22 22:33N 54°43' W 001°01'0 0.0
2016-May-22 21:33N 54°43' W 001°01'0 0.0
2016-May-22 20:33N 54°43' W 001°01'0 0.0
2016-May-22 19:33N 54°43' W 001°01'0 0.1
2016-May-22 18:33N 54°43' W 001°00'0 0.0
2016-May-22 17:33N 54°43' W 001°00'0 0.0
2016-May-22 16:33N 54°43' W 001°00'0 0.0
2016-May-22 15:33N 54°43' W 001°01'0 0.0
2016-May-22 14:30N 54°43' W 001°01'0 0.1
2016-May-22 13:30N 54°43' W 001°01'0 0.0
2016-May-22 12:33N 54°43' W 001°01'0 0.0
2016-May-22 11:30N 54°43' W 001°01'0 0.0
2016-May-22 10:33N 54°43' W 001°01'0 0.1
2016-May-22 09:33N 54°43' W 001°01'8 8.4
2016-May-22 08:33N 54°38' W 000°48'1312.5
2016-May-22 07:33N 54°34' W 000°28'1211.9
2016-May-22 06:33N 54°26' W 000°13'1110.6
2016-May-22 05:33N 54°18' W 000°01'9 9.4
2016-May-22 04:33N 54°11' E 000°10'9 9.2
2016-May-22 03:34N 54°03' E 000°19'4510.9
2016-May-21 23:28N 53°27' E 001°03'1212.8
2016-May-21 22:33N 53°17' E 001°14'1111.5
2016-May-21 21:34N 53°09' E 001°27'1010.2
2016-May-21 20:33N 53°02' E 001°39'9 9.3
2016-May-21 19:33N 52°57' E 001°53'9 9.2
2016-May-21 18:33N 52°53' E 002°06'1110.8
2016-May-21 17:30N 52°43' E 002°14'1111.2
2016-May-21 16:33N 52°33' E 002°18'61 9.9
2016-May-21 10:27N 51°43' E 003°15'1011.1
2016-May-21 09:34N 51°35' E 003°24'1110.5
2016-May-21 08:33N 51°26' E 003°34'9 9.0
2016-May-21 07:33N 51°22' E 003°46'1010.2
2016-May-21 06:33N 51°24' E 004°02'1010.0
2016-May-21 05:34N 51°21' E 004°17'0 0.2
2016-May-21 04:33N 51°21' E 004°18'5 5.0
2016-May-21 03:33N 51°16' E 004°20'0 0.3
2016-May-21 02:33N 51°16' E 004°20'0 0.0
2016-May-21 01:33N 51°16' E 004°20'0 0.0
2016-May-21 00:33N 51°16' E 004°20'0 0.0
2016-May-20 23:33N 51°16' E 004°20'0 0.0
2016-May-20 22:33N 51°16' E 004°20'0 0.0
2016-May-20 21:33N 51°16' E 004°20'0 0.0
2016-May-20 20:33N 51°16' E 004°20'0 0.0
2016-May-20 19:33N 51°16' E 004°20'0 0.0
2016-May-20 18:30N 51°16' E 004°20'0 0.0
2016-May-20 17:33N 51°16' E 004°20'0 0.0
2016-May-20 16:33N 51°16' E 004°20'0 0.0
2016-May-20 15:33N 51°16' E 004°20'0 0.0
2016-May-20 14:33N 51°16' E 004°20'0 0.0
2016-May-20 13:33N 51°16' E 004°20'0 0.0
2016-May-20 12:33N 51°16' E 004°20'0 0.0
2016-May-20 11:33N 51°16' E 004°20'0 0.0
2016-May-20 10:33N 51°16' E 004°20'0 0.0
2016-May-20 09:30N 51°16' E 004°20'0 0.0
2016-May-20 08:33N 51°16' E 004°20'0 0.0
2016-May-20 07:33N 51°16' E 004°20'0 0.0
2016-May-20 06:33N 51°16' E 004°20'0 0.0
2016-May-20 05:33N 51°16' E 004°20'0 0.0
2016-May-20 04:30N 51°16' E 004°20'0 0.0
2016-May-20 03:33N 51°16' E 004°20'0 0.0
2016-May-20 02:33N 51°16' E 004°20'0 0.0
2016-May-20 01:33N 51°16' E 004°20'0 0.0
2016-May-20 00:33N 51°16' E 004°20'5 4.9
2016-May-19 23:33N 51°20' E 004°18'1 0.6
2016-May-19 22:34N 51°21' E 004°17'2 2.1
2016-May-19 21:33N 51°22' E 004°14'7 6.6
2016-May-19 20:33N 51°22' E 004°03'5 5.3
2016-May-19 19:33N 51°22' E 003°55'9 8.8
2016-May-19 18:33N 51°25' E 003°42'9 9.0
2016-May-19 17:33N 51°25' E 003°28'1010.5
2016-May-19 16:33N 51°24' E 003°11'1110.7
2016-May-19 15:33N 51°22' E 002°54'1110.2
2016-May-19 14:29N 51°21' E 002°37'2 0.4
2016-May-19 08:17N 51°20' E 002°34'0 0.0
2016-May-19 07:20N 51°20' E 002°34'0 0.0
2016-May-19 06:32N 51°20' E 002°34'0 0.0
2016-May-19 05:32N 51°20' E 002°34'0 0.0
2016-May-19 04:32N 51°20' E 002°34'0 0.1
2016-May-19 03:20N 51°20' E 002°34'0 0.0
2016-May-19 02:11N 51°20' E 002°34'0 0.0
2016-May-18 21:26N 51°20' E 002°34'0 0.0
2016-May-18 20:11N 51°20' E 002°34'0 0.1
2016-May-18 18:32N 51°20' E 002°34'0 0.0
2016-May-18 17:32N 51°20' E 002°34'0 0.0
2016-May-18 16:22N 51°20' E 002°34'0 0.1
2016-May-18 15:13N 51°20' E 002°34'0 0.1
2016-May-18 14:16N 51°20' E 002°34'0 0.0
2016-May-18 13:14N 51°20' E 002°34'0 0.0
2016-May-18 12:17N 51°20' E 002°34'1 1.7
2016-May-18 11:33N 51°21' E 002°33'1111.2
2016-May-18 10:34N 51°18' E 002°16'1312.5
2016-May-18 09:33N 51°11' E 001°59'1212.5
2016-May-18 08:34N 51°04' E 001°43'1211.6
2016-May-18 07:34N 50°56' E 001°30'10 9.8
2016-May-18 06:30N 50°46' E 001°25'50 9.6
2016-May-18 01:17N 50°12' E 000°26'7 8.9
2016-May-18 00:29N 50°07' E 000°18'8 8.9
2016-May-17 23:34N 50°02' E 000°09'9 9.1
2016-May-17 22:33N 49°55' W 000°01'10 9.6
2016-May-17 21:33N 49°47' W 000°08'10 9.6
2016-May-17 20:34N 49°37' W 000°08'9 8.6
2016-May-17 19:32N 49°29' W 000°02'0 0.0
2016-May-17 18:32N 49°29' W 000°02'0 0.0
2016-May-17 17:32N 49°29' W 000°02'0 0.0
2016-May-17 16:32N 49°29' W 000°02'0 0.0
2016-May-17 15:32N 49°29' W 000°02'0 0.1
2016-May-17 14:32N 49°29' W 000°02'0 0.0
2016-May-17 13:32N 49°29' W 000°02'0 0.0
2016-May-17 12:32N 49°29' W 000°02'0 0.0
2016-May-17 11:32N 49°29' W 000°02'0 0.1
2016-May-17 10:32N 49°29' W 000°02'0 0.0
2016-May-17 09:32N 49°29' W 000°02'0 0.0
2016-May-17 08:32N 49°29' W 000°02'0 0.0
2016-May-17 07:32N 49°29' W 000°02'0 0.0
2016-May-17 06:32N 49°29' W 000°02'0 0.0
2016-May-17 05:29N 49°29' W 000°02'0 0.0
2016-May-17 04:32N 49°29' W 000°02'0 0.0
2016-May-17 03:32N 49°29' W 000°02'0 0.0
2016-May-17 02:29N 49°29' W 000°02'0 0.0
2016-May-17 01:32N 49°29' W 000°02'0 0.1
2016-May-17 00:32N 49°29' W 000°02'0 0.1
2016-May-16 23:32N 49°29' W 000°02'0 0.0
2016-May-16 22:32N 49°29' W 000°02'0 0.0
2016-May-16 21:32N 49°29' W 000°02'0 0.0
2016-May-16 20:31N 49°29' W 000°02'0 0.0
2016-May-16 19:32N 49°29' W 000°02'0 0.0
2016-May-16 18:31N 49°29' W 000°02'0 0.0
2016-May-16 17:31N 49°29' W 000°02'0 0.0
2016-May-16 16:31N 49°29' W 000°02'0 0.0
2016-May-16 15:31N 49°29' W 000°02'0 0.0
2016-May-16 14:31N 49°29' W 000°02'0 0.0
2016-May-16 13:31N 49°29' W 000°02'0 0.0
2016-May-16 12:32N 49°29' W 000°02'0 0.0
2016-May-16 11:31N 49°29' W 000°02'0 0.0
2016-May-16 10:31N 49°29' W 000°02'0 0.0
2016-May-16 09:31N 49°29' W 000°02'0 0.0
2016-May-16 08:31N 49°29' W 000°02'0 0.0
2016-May-16 07:31N 49°29' W 000°02'0 0.0
2016-May-16 06:31N 49°29' W 000°02'0 0.0
2016-May-16 05:31N 49°29' W 000°02'0 0.0
2016-May-16 04:31N 49°29' W 000°02'0 0.0
2016-May-16 03:31N 49°29' W 000°02'0 0.0
2016-May-16 02:31N 49°29' W 000°02'0 0.0
2016-May-16 01:31N 49°29' W 000°02'0 0.0
2016-May-16 00:31N 49°29' W 000°02'0 0.0
2016-May-15 23:31N 49°29' W 000°02'0 0.0
2016-May-15 22:31N 49°29' W 000°02'0 0.0
2016-May-15 21:31N 49°29' W 000°02'0 0.0
2016-May-15 20:31N 49°29' W 000°02'0 0.0
2016-May-15 19:31N 49°29' W 000°02'0 0.0
2016-May-15 18:31N 49°29' W 000°02'0 0.0
2016-May-15 17:31N 49°29' W 000°02'0 0.0
2016-May-15 16:31N 49°29' W 000°02'0 0.0
2016-May-15 15:31N 49°29' W 000°02'0 0.0
2016-May-15 14:31N 49°29' W 000°02'0 0.0
2016-May-15 13:31N 49°29' W 000°02'0 0.0
2016-May-15 12:31N 49°29' W 000°02'0 0.1
2016-May-15 11:31N 49°29' W 000°02'0 0.1
2016-May-15 10:31N 49°29' W 000°02'0 0.0
2016-May-15 09:31N 49°29' W 000°02'0 0.0
2016-May-15 08:31N 49°29' W 000°02'0 0.0
2016-May-15 07:31N 49°29' W 000°02'0 0.0
2016-May-15 06:31N 49°29' W 000°02'0 0.0
2016-May-15 05:31N 49°29' W 000°02'0 0.0
2016-May-15 04:31N 49°29' W 000°02'0 0.1
2016-May-15 03:31N 49°29' W 000°02'0 0.1
2016-May-15 02:31N 49°29' W 000°02'0 0.0
2016-May-15 01:31N 49°29' W 000°02'0 0.0
2016-May-15 00:31N 49°29' W 000°02'0 0.0
2016-May-14 23:31N 49°29' W 000°02'0 0.0
2016-May-14 22:31N 49°29' W 000°02'  
Track history (hours):
 
Tides and Currents Weather Stations Pressure Air Temp Water Temp Dewpoint Dewpoint Depression Visibility Wind Speed Wind Dir Waves Ship Positions

Capewater

Last reported at 2016-May-24 21:34 UTC. Time now 2016-May-24 21:34 UTC.
Position N 54°12' E 000°20'.

Length 100 m; draft 5.3 m.

Type: Tanker. MMSI: 246346000.

Date/timePositionNaut miles runAvg speedWind from/ knotsBaromVisibWave heightAir tempDewpointWater temp
2016-May-24 21:34N 54°12' E 000°20'1010.1
2016-May-24 20:34N 54°20' E 000°10'1110.6
2016-May-24 19:34N 54°28' W 000°02'1111.0
2016-May-24 18:34N 54°37' W 000°13'1111.0
2016-May-24 17:33N 54°46' W 000°25'9 9.5
2016-May-24 16:33N 54°47' W 000°41'9 8.7
2016-May-24 15:33N 54°46' W 000°56'9 9.1
2016-May-24 14:33N 54°40' W 001°08'3 0.1
2016-May-23 09:31N 54°42' W 001°05'3 2.6
2016-May-23 08:33N 54°43' W 001°01'0 0.0
2016-May-23 07:33N 54°43' W 001°01'0 0.0
2016-May-23 06:33N 54°43' W 001°01'0 0.0
2016-May-23 05:30N 54°43' W 001°01'0 0.0
2016-May-23 04:33N 54°43' W 001°00'0 0.0
2016-May-23 03:33N 54°43' W 001°00'0 0.0
2016-May-23 02:33N 54°43' W 001°00'0 0.0
2016-May-23 01:33N 54°43' W 001°00'0 0.0
2016-May-23 00:30N 54°43' W 001°01'0 0.1
2016-May-22 23:33N 54°43' W 001°01'0 0.0
2016-May-22 22:33N 54°43' W 001°01'0 0.0
2016-May-22 21:33N 54°43' W 001°01'0 0.0
2016-May-22 20:33N 54°43' W 001°01'0 0.0
2016-May-22 19:33N 54°43' W 001°01'0 0.1
2016-May-22 18:33N 54°43' W 001°00'0 0.0
2016-May-22 17:33N 54°43' W 001°00'0 0.0
2016-May-22 16:33N 54°43' W 001°00'0 0.0
2016-May-22 15:33N 54°43' W 001°01'0 0.0
2016-May-22 14:30N 54°43' W 001°01'0 0.1
2016-May-22 13:30N 54°43' W 001°01'0 0.0
2016-May-22 12:33N 54°43' W 001°01'0 0.0
2016-May-22 11:30N 54°43' W 001°01'0 0.0
2016-May-22 10:33N 54°43' W 001°01'0 0.1
2016-May-22 09:33N 54°43' W 001°01'8 8.4
2016-May-22 08:33N 54°38' W 000°48'1312.5
2016-May-22 07:33N 54°34' W 000°28'1211.9
2016-May-22 06:33N 54°26' W 000°13'1110.6
2016-May-22 05:33N 54°18' W 000°01'9 9.4
2016-May-22 04:33N 54°11' E 000°10'9 9.2
2016-May-22 03:34N 54°03' E 000°19'4510.9
2016-May-21 23:28N 53°27' E 001°03'1212.8
2016-May-21 22:33N 53°17' E 001°14'1111.5
2016-May-21 21:34N 53°09' E 001°27'1010.2
2016-May-21 20:33N 53°02' E 001°39'9 9.3
2016-May-21 19:33N 52°57' E 001°53'9 9.2
2016-May-21 18:33N 52°53' E 002°06'1110.8
2016-May-21 17:30N 52°43' E 002°14'1111.2
2016-May-21 16:33N 52°33' E 002°18'61 9.9
2016-May-21 10:27N 51°43' E 003°15'1011.1
2016-May-21 09:34N 51°35' E 003°24'1110.5
2016-May-21 08:33N 51°26' E 003°34'9 9.0
2016-May-21 07:33N 51°22' E 003°46'1010.2
2016-May-21 06:33N 51°24' E 004°02'1010.0
2016-May-21 05:34N 51°21' E 004°17'0 0.2
2016-May-21 04:33N 51°21' E 004°18'5 5.0
2016-May-21 03:33N 51°16' E 004°20'0 0.3
2016-May-21 02:33N 51°16' E 004°20'0 0.0
2016-May-21 01:33N 51°16' E 004°20'0 0.0
2016-May-21 00:33N 51°16' E 004°20'0 0.0
2016-May-20 23:33N 51°16' E 004°20'0 0.0
2016-May-20 22:33N 51°16' E 004°20'0 0.0
2016-May-20 21:33N 51°16' E 004°20'0 0.0
2016-May-20 20:33N 51°16' E 004°20'0 0.0
2016-May-20 19:33N 51°16' E 004°20'0 0.0
2016-May-20 18:30N 51°16' E 004°20'0 0.0
2016-May-20 17:33N 51°16' E 004°20'0 0.0
2016-May-20 16:33N 51°16' E 004°20'0 0.0
2016-May-20 15:33N 51°16' E 004°20'0 0.0
2016-May-20 14:33N 51°16' E 004°20'0 0.0
2016-May-20 13:33N 51°16' E 004°20'0 0.0
2016-May-20 12:33N 51°16' E 004°20'0 0.0
2016-May-20 11:33N 51°16' E 004°20'0 0.0
2016-May-20 10:33N 51°16' E 004°20'0 0.0
2016-May-20 09:30N 51°16' E 004°20'0 0.0
2016-May-20 08:33N 51°16' E 004°20'0 0.0
2016-May-20 07:33N 51°16' E 004°20'0 0.0
2016-May-20 06:33N 51°16' E 004°20'0 0.0
2016-May-20 05:33N 51°16' E 004°20'0 0.0
2016-May-20 04:30N 51°16' E 004°20'0 0.0
2016-May-20 03:33N 51°16' E 004°20'0 0.0
2016-May-20 02:33N 51°16' E 004°20'0 0.0
2016-May-20 01:33N 51°16' E 004°20'0 0.0
2016-May-20 00:33N 51°16' E 004°20'5 4.9
2016-May-19 23:33N 51°20' E 004°18'1 0.6
2016-May-19 22:34N 51°21' E 004°17'2 2.1
2016-May-19 21:33N 51°22' E 004°14'7 6.6
2016-May-19 20:33N 51°22' E 004°03'5 5.3
2016-May-19 19:33N 51°22' E 003°55'9 8.8
2016-May-19 18:33N 51°25' E 003°42'9 9.0
2016-May-19 17:33N 51°25' E 003°28'1010.5
2016-May-19 16:33N 51°24' E 003°11'1110.7
2016-May-19 15:33N 51°22' E 002°54'1110.2
2016-May-19 14:29N 51°21' E 002°37'2 0.4
2016-May-19 08:17N 51°20' E 002°34'0 0.0
2016-May-19 07:20N 51°20' E 002°34'0 0.0
2016-May-19 06:32N 51°20' E 002°34'0 0.0
2016-May-19 05:32N 51°20' E 002°34'0 0.0
2016-May-19 04:32N 51°20' E 002°34'0 0.1
2016-May-19 03:20N 51°20' E 002°34'0 0.0
2016-May-19 02:11N 51°20' E 002°34'0 0.0
2016-May-18 21:26N 51°20' E 002°34'0 0.0
2016-May-18 20:11N 51°20' E 002°34'0 0.1
2016-May-18 18:32N 51°20' E 002°34'0 0.0
2016-May-18 17:32N 51°20' E 002°34'0 0.0
2016-May-18 16:22N 51°20' E 002°34'0 0.1
2016-May-18 15:13N 51°20' E 002°34'0 0.1
2016-May-18 14:16N 51°20' E 002°34'0 0.0
2016-May-18 13:14N 51°20' E 002°34'0 0.0
2016-May-18 12:17N 51°20' E 002°34'1 1.7
2016-May-18 11:33N 51°21' E 002°33'1111.2
2016-May-18 10:34N 51°18' E 002°16'1312.5
2016-May-18 09:33N 51°11' E 001°59'1212.5
2016-May-18 08:34N 51°04' E 001°43'1211.6
2016-May-18 07:34N 50°56' E 001°30'10 9.8
2016-May-18 06:30N 50°46' E 001°25'50 9.6
2016-May-18 01:17N 50°12' E 000°26'7 8.9
2016-May-18 00:29N 50°07' E 000°18'8 8.9
2016-May-17 23:34N 50°02' E 000°09'9 9.1
2016-May-17 22:33N 49°55' W 000°01'10 9.6
2016-May-17 21:33N 49°47' W 000°08'10 9.6
2016-May-17 20:34N 49°37' W 000°08'9 8.6
2016-May-17 19:32N 49°29' W 000°02'0 0.0
2016-May-17 18:32N 49°29' W 000°02'0 0.0
2016-May-17 17:32N 49°29' W 000°02'0 0.0
2016-May-17 16:32N 49°29' W 000°02'0 0.0
2016-May-17 15:32N 49°29' W 000°02'0 0.1
2016-May-17 14:32N 49°29' W 000°02'0 0.0
2016-May-17 13:32N 49°29' W 000°02'0 0.0
2016-May-17 12:32N 49°29' W 000°02'0 0.0
2016-May-17 11:32N 49°29' W 000°02'0 0.1
2016-May-17 10:32N 49°29' W 000°02'0 0.0
2016-May-17 09:32N 49°29' W 000°02'0 0.0
2016-May-17 08:32N 49°29' W 000°02'0 0.0
2016-May-17 07:32N 49°29' W 000°02'0 0.0
2016-May-17 06:32N 49°29' W 000°02'0 0.0
2016-May-17 05:29N 49°29' W 000°02'0 0.0
2016-May-17 04:32N 49°29' W 000°02'0 0.0
2016-May-17 03:32N 49°29' W 000°02'0 0.0
2016-May-17 02:29N 49°29' W 000°02'0 0.0
2016-May-17 01:32N 49°29' W 000°02'0 0.1
2016-May-17 00:32N 49°29' W 000°02'0 0.1
2016-May-16 23:32N 49°29' W 000°02'0 0.0
2016-May-16 22:32N 49°29' W 000°02'0 0.0
2016-May-16 21:32N 49°29' W 000°02'0 0.0
2016-May-16 20:31N 49°29' W 000°02'0 0.0
2016-May-16 19:32N 49°29' W 000°02'0 0.0
2016-May-16 18:31N 49°29' W 000°02'0 0.0
2016-May-16 17:31N 49°29' W 000°02'0 0.0
2016-May-16 16:31N 49°29' W 000°02'0 0.0
2016-May-16 15:31N 49°29' W 000°02'0 0.0
2016-May-16 14:31N 49°29' W 000°02'0 0.0
2016-May-16 13:31N 49°29' W 000°02'0 0.0
2016-May-16 12:32N 49°29' W 000°02'0 0.0
2016-May-16 11:31N 49°29' W 000°02'0 0.0
2016-May-16 10:31N 49°29' W 000°02'0 0.0
2016-May-16 09:31N 49°29' W 000°02'0 0.0
2016-May-16 08:31N 49°29' W 000°02'0 0.0
2016-May-16 07:31N 49°29' W 000°02'0 0.0
2016-May-16 06:31N 49°29' W 000°02'0 0.0
2016-May-16 05:31N 49°29' W 000°02'0 0.0
2016-May-16 04:31N 49°29' W 000°02'0 0.0
2016-May-16 03:31N 49°29' W 000°02'0 0.0
2016-May-16 02:31N 49°29' W 000°02'0 0.0
2016-May-16 01:31N 49°29' W 000°02'0 0.0
2016-May-16 00:31N 49°29' W 000°02'0 0.0
2016-May-15 23:31N 49°29' W 000°02'0 0.0
2016-May-15 22:31N 49°29' W 000°02'0 0.0
2016-May-15 21:31N 49°29' W 000°02'0 0.0
2016-May-15 20:31N 49°29' W 000°02'0 0.0
2016-May-15 19:31N 49°29' W 000°02'0 0.0
2016-May-15 18:31N 49°29' W 000°02'0 0.0
2016-May-15 17:31N 49°29' W 000°02'0 0.0
2016-May-15 16:31N 49°29' W 000°02'0 0.0
2016-May-15 15:31N 49°29' W 000°02'0 0.0
2016-May-15 14:31N 49°29' W 000°02'0 0.0
2016-May-15 13:31N 49°29' W 000°02'0 0.0
2016-May-15 12:31N 49°29' W 000°02'0 0.1
2016-May-15 11:31N 49°29' W 000°02'0 0.1
2016-May-15 10:31N 49°29' W 000°02'0 0.0
2016-May-15 09:31N 49°29' W 000°02'0 0.0
2016-May-15 08:31N 49°29' W 000°02'0 0.0
2016-May-15 07:31N 49°29' W 000°02'0 0.0
2016-May-15 06:31N 49°29' W 000°02'0 0.0
2016-May-15 05:31N 49°29' W 000°02'0 0.0
2016-May-15 04:31N 49°29' W 000°02'0 0.1
2016-May-15 03:31N 49°29' W 000°02'0 0.1
2016-May-15 02:31N 49°29' W 000°02'0 0.0
2016-May-15 01:31N 49°29' W 000°02'0 0.0
2016-May-15 00:31N 49°29' W 000°02'0 0.0
2016-May-14 23:31N 49°29' W 000°02'0 0.0
2016-May-14 22:31N 49°29' W 000°02'  

Dump ship's entire track history